createdAt,value
2023-05-25T00:01:55.403Z,22.15
2023-05-25T00:04:27.904Z,22.08
2023-05-25T00:06:56.372Z,22.01
2023-05-25T00:09:26.297Z,21.93
2023-05-25T00:11:54.619Z,21.84
2023-05-25T00:14:24.486Z,21.80
2023-05-25T00:16:54.629Z,21.73
2023-05-25T00:19:23.066Z,21.69
2023-05-25T00:21:52.029Z,21.59
2023-05-25T00:24:20.336Z,21.51
2023-05-25T00:26:48.725Z,21.52
2023-05-25T00:29:17.221Z,21.48
2023-05-25T00:31:45.467Z,21.33
2023-05-25T00:34:13.722Z,21.21
2023-05-25T00:36:44.060Z,21.15
2023-05-25T00:39:12.364Z,21.12
2023-05-25T00:41:45.163Z,21.11
2023-05-25T00:44:22.310Z,21.07
2023-05-25T00:46:53.210Z,21.04
2023-05-25T00:49:26.060Z,20.97
2023-05-25T00:51:54.620Z,20.92
2023-05-25T00:54:23.379Z,20.88
2023-05-25T00:56:58.721Z,20.82
2023-05-25T00:59:37.863Z,20.75
2023-05-25T01:02:09.264Z,20.73
2023-05-25T01:05:01.846Z,20.70
2023-05-25T01:07:33.443Z,20.70
2023-05-25T01:10:06.149Z,20.67
2023-05-25T01:12:39.275Z,20.66
2023-05-25T01:15:08.136Z,20.63
2023-05-25T01:17:38.968Z,20.57
2023-05-25T01:20:12.136Z,20.52
2023-05-25T01:23:13.010Z,20.44
2023-05-25T01:25:46.918Z,20.38
2023-05-25T01:28:29.455Z,20.29
2023-05-25T01:30:58.537Z,20.20
2023-05-25T01:33:29.830Z,20.11
2023-05-25T01:35:59.070Z,20.02
2023-05-25T01:38:27.725Z,19.93
2023-05-25T01:40:56.052Z,19.91
2023-05-25T01:43:24.567Z,19.88
2023-05-25T01:45:59.293Z,19.81
2023-05-25T01:48:38.430Z,19.74
2023-05-25T01:51:17.261Z,19.68
2023-05-25T01:53:52.151Z,19.63
2023-05-25T01:56:24.085Z,19.53
2023-05-25T01:58:52.872Z,19.46
2023-05-25T02:01:23.819Z,19.46
2023-05-25T02:03:53.542Z,19.42
2023-05-25T02:06:22.021Z,19.35
2023-05-25T02:08:50.439Z,19.27
2023-05-25T02:11:18.771Z,19.21
2023-05-25T02:13:47.178Z,19.13
2023-05-25T02:16:15.506Z,19.11
2023-05-25T02:18:45.477Z,19.10
2023-05-25T02:21:13.959Z,19.04
2023-05-25T02:23:42.602Z,19.01
2023-05-25T02:26:10.882Z,18.95
2023-05-25T02:28:39.177Z,18.88
2023-05-25T02:31:07.481Z,18.79
2023-05-25T02:33:35.750Z,18.75
2023-05-25T02:36:04.192Z,18.71
2023-05-25T02:38:32.504Z,18.66
2023-05-25T02:41:00.736Z,18.62
2023-05-25T02:43:28.975Z,18.60
2023-05-25T02:45:57.230Z,18.57
2023-05-25T02:48:25.726Z,18.52
2023-05-25T02:50:54.042Z,18.44
2023-05-25T02:53:22.308Z,18.39
2023-05-25T02:55:50.553Z,18.30
2023-05-25T02:58:18.797Z,18.25
2023-05-25T03:00:47.714Z,18.18
2023-05-25T03:03:16.113Z,18.09
2023-05-25T03:05:44.508Z,18.04
2023-05-25T03:08:12.963Z,18.00
2023-05-25T03:10:41.225Z,17.96
2023-05-25T03:13:09.482Z,17.89
2023-05-25T03:15:37.726Z,17.83
2023-05-25T03:18:06.400Z,17.74
2023-05-25T03:20:35.534Z,17.66
2023-05-25T03:23:04.235Z,17.58
2023-05-25T03:25:32.603Z,17.52
2023-05-25T03:28:00.897Z,17.47
2023-05-25T03:30:29.176Z,17.41
2023-05-25T03:32:57.465Z,17.36
2023-05-25T03:35:26.091Z,17.27
2023-05-25T03:37:54.384Z,17.22
2023-05-25T03:40:22.669Z,17.15
2023-05-25T03:42:51.226Z,17.10
2023-05-25T03:45:19.529Z,17.05
2023-05-25T03:47:48.890Z,16.99
2023-05-25T03:50:17.321Z,16.94
2023-05-25T03:52:45.585Z,16.93
2023-05-25T03:55:16.114Z,16.90
2023-05-25T03:57:44.399Z,16.82
2023-05-25T04:00:13.354Z,16.75
2023-05-25T04:02:42.044Z,16.68
2023-05-25T04:05:10.768Z,16.62
2023-05-25T04:07:39.053Z,16.58
2023-05-25T04:10:08.123Z,16.57
2023-05-25T04:12:37.146Z,16.54
2023-05-25T04:15:06.493Z,16.48
2023-05-25T04:17:36.870Z,16.45
2023-05-25T04:20:09.813Z,16.38
2023-05-25T04:22:40.663Z,16.32
2023-05-25T04:25:09.310Z,16.27
2023-05-25T04:27:37.677Z,16.23
2023-05-25T04:30:06.495Z,16.20
2023-05-25T04:32:38.121Z,16.17
2023-05-25T04:35:07.235Z,16.13
2023-05-25T04:37:37.906Z,16.11
2023-05-25T04:40:14.894Z,16.08
2023-05-25T04:42:43.525Z,16.03
2023-05-25T04:45:12.100Z,16.02
2023-05-25T04:47:41.882Z,16.00
2023-05-25T04:50:11.874Z,15.97
2023-05-25T04:52:40.196Z,15.92
2023-05-25T04:55:08.897Z,15.88
2023-05-25T04:57:37.169Z,15.85
2023-05-25T05:00:06.961Z,15.82
2023-05-25T05:02:35.405Z,15.81
2023-05-25T05:05:03.658Z,15.76
2023-05-25T05:07:32.556Z,15.71
2023-05-25T05:10:00.873Z,15.70
2023-05-25T05:12:29.137Z,15.68
2023-05-25T05:14:57.534Z,15.65
2023-05-25T05:17:27.468Z,15.61
2023-05-25T05:19:55.704Z,15.57
2023-05-25T05:22:23.989Z,15.55
2023-05-25T05:24:52.273Z,15.53
2023-05-25T05:27:20.772Z,15.52
2023-05-25T05:29:49.093Z,15.49
2023-05-25T05:32:17.352Z,15.46
2023-05-25T05:34:45.573Z,15.44
2023-05-25T05:37:13.865Z,15.42
2023-05-25T05:39:42.219Z,15.43
2023-05-25T05:42:10.425Z,15.40
2023-05-25T05:44:38.636Z,15.37
2023-05-25T05:47:07.325Z,15.36
2023-05-25T05:49:35.696Z,15.30
2023-05-25T05:52:05.515Z,15.28
2023-05-25T05:54:33.820Z,15.24
2023-05-25T05:57:02.645Z,15.18
2023-05-25T05:59:30.917Z,15.17
2023-05-25T06:01:59.281Z,15.12
2023-05-25T06:04:29.595Z,15.06
2023-05-25T06:06:57.931Z,15.03
2023-05-25T06:09:27.512Z,15.01
2023-05-25T06:11:55.804Z,15.01
2023-05-25T06:14:25.155Z,15.00
2023-05-25T06:16:54.420Z,14.96
2023-05-25T06:19:22.682Z,14.92
2023-05-25T06:21:50.882Z,14.89
2023-05-25T06:24:19.141Z,14.87
2023-05-25T06:26:47.405Z,14.85
2023-05-25T06:29:17.158Z,14.83
2023-05-25T06:31:45.755Z,14.79
2023-05-25T06:34:14.110Z,14.78
2023-05-25T06:36:42.596Z,14.77
2023-05-25T06:39:11.045Z,14.76
2023-05-25T06:41:41.882Z,14.74
2023-05-25T06:44:10.271Z,14.70
2023-05-25T06:46:40.065Z,14.68
2023-05-25T06:49:08.491Z,14.67
2023-05-25T06:51:36.713Z,14.65
2023-05-25T06:54:05.092Z,14.65
2023-05-25T06:56:33.366Z,14.63
2023-05-25T06:59:01.589Z,14.63
2023-05-25T07:01:29.885Z,14.59
2023-05-25T07:03:58.142Z,14.58
2023-05-25T07:06:27.010Z,14.54
2023-05-25T07:08:56.595Z,14.50
2023-05-25T07:11:24.815Z,14.46
2023-05-25T07:13:53.085Z,14.44
2023-05-25T07:16:21.347Z,14.42
2023-05-25T07:18:49.624Z,14.43
2023-05-25T07:21:18.264Z,14.43
2023-05-25T07:23:46.480Z,14.40
2023-05-25T07:26:15.379Z,14.38
2023-05-25T07:28:43.824Z,14.39
2023-05-25T07:31:12.820Z,14.35
2023-05-25T07:33:41.053Z,14.35
2023-05-25T07:36:10.743Z,14.36
2023-05-25T07:38:39.024Z,14.33
2023-05-25T07:41:07.370Z,14.31
2023-05-25T07:43:35.616Z,14.30
2023-05-25T07:46:03.877Z,14.30
2023-05-25T07:48:32.092Z,14.29
2023-05-25T07:51:00.696Z,14.31
2023-05-25T07:53:28.970Z,14.33
2023-05-25T07:55:57.156Z,14.30
2023-05-25T07:58:25.692Z,14.28
2023-05-25T08:00:53.923Z,14.26
2023-05-25T08:03:31.828Z,14.26
2023-05-25T08:06:04.295Z,14.25
2023-05-25T08:08:32.507Z,14.22
2023-05-25T08:11:00.840Z,14.23
2023-05-25T08:13:29.095Z,14.26
2023-05-25T08:15:57.348Z,14.26
2023-05-25T08:18:25.948Z,14.26
2023-05-25T08:20:54.150Z,14.28
2023-05-25T08:23:22.850Z,14.29
2023-05-25T08:25:51.992Z,14.25
2023-05-25T08:28:21.602Z,14.25
2023-05-25T08:30:49.957Z,14.25
2023-05-25T08:33:18.292Z,14.25
2023-05-25T08:35:46.809Z,14.24
2023-05-25T08:38:15.207Z,14.24
2023-05-25T08:40:44.767Z,14.26
2023-05-25T08:43:13.066Z,14.29
2023-05-25T08:45:45.330Z,14.30
2023-05-25T08:50:53.445Z,14.29
2023-05-25T08:53:23.699Z,14.30
2023-05-25T08:55:54.204Z,14.33
2023-05-25T08:58:32.100Z,14.30
2023-05-25T09:01:05.343Z,14.29
2023-05-25T09:03:36.101Z,14.29
2023-05-25T09:06:04.703Z,14.30
2023-05-25T09:08:33.537Z,14.32
2023-05-25T09:11:03.137Z,14.33
2023-05-25T09:13:31.719Z,14.32
2023-05-25T09:16:00.656Z,14.32
2023-05-25T09:18:29.151Z,14.30
2023-05-25T09:20:57.858Z,14.30
2023-05-25T09:23:26.524Z,14.33
2023-05-25T09:25:55.583Z,14.30
2023-05-25T09:28:27.446Z,14.30
2023-05-25T09:30:57.220Z,14.32
2023-05-25T09:33:25.708Z,14.34
2023-05-25T09:35:54.387Z,14.34
2023-05-25T09:38:23.502Z,14.33
2023-05-25T09:40:52.652Z,14.31
2023-05-25T09:43:36.544Z,14.28
2023-05-25T09:46:09.233Z,14.29
2023-05-25T09:48:37.880Z,14.30
2023-05-25T09:51:09.583Z,14.30
2023-05-25T09:53:38.504Z,14.30
2023-05-25T09:56:07.266Z,14.29
2023-05-25T09:58:35.503Z,14.32
2023-05-25T10:01:05.393Z,14.35
2023-05-25T10:03:34.007Z,14.37
2023-05-25T10:06:02.967Z,14.37
2023-05-25T10:08:31.778Z,14.39
2023-05-25T10:11:00.545Z,14.39
2023-05-25T10:13:30.908Z,14.36
2023-05-25T10:16:00.205Z,14.34
2023-05-25T10:18:33.953Z,14.34
2023-05-25T10:21:07.793Z,14.34
2023-05-25T10:23:45.627Z,14.32
2023-05-25T10:26:17.974Z,14.34
2023-05-25T10:28:47.291Z,14.34
2023-05-25T10:31:17.708Z,14.32
2023-05-25T10:33:50.703Z,14.31
2023-05-25T10:36:22.473Z,14.30
2023-05-25T10:38:53.180Z,14.27
2023-05-25T10:41:22.523Z,14.28
2023-05-25T10:43:54.168Z,14.28
2023-05-25T10:46:23.372Z,14.28
2023-05-25T10:49:01.456Z,14.27
2023-05-25T10:51:40.377Z,14.27
2023-05-25T10:54:08.832Z,14.28
2023-05-25T10:56:37.272Z,14.24
2023-05-25T10:59:05.613Z,14.24
2023-05-25T11:01:37.359Z,14.25
2023-05-25T11:04:18.102Z,14.27
2023-05-25T11:06:49.287Z,14.27
2023-05-25T11:09:27.687Z,14.28
2023-05-25T11:12:00.649Z,14.26
2023-05-25T11:14:30.692Z,14.26
2023-05-25T11:17:15.706Z,14.24
2023-05-25T11:19:51.561Z,14.26
2023-05-25T11:22:25.296Z,14.26
2023-05-25T11:24:54.997Z,14.28
2023-05-25T11:27:29.076Z,14.24
2023-05-25T11:29:58.604Z,14.24
2023-05-25T11:32:30.095Z,14.22
2023-05-25T11:34:59.886Z,14.22
2023-05-25T11:37:32.198Z,14.23
2023-05-25T11:40:00.463Z,14.23
2023-05-25T11:42:30.249Z,14.23
2023-05-25T11:45:03.613Z,14.21
2023-05-25T11:47:33.170Z,14.17
2023-05-25T11:50:02.354Z,14.16
2023-05-25T11:52:30.619Z,14.12
2023-05-25T11:54:58.997Z,14.12
2023-05-25T11:57:27.516Z,14.09
2023-05-25T11:59:58.635Z,14.10
2023-05-25T12:02:27.651Z,14.12
2023-05-25T12:04:56.855Z,14.17
2023-05-25T12:07:32.148Z,14.17
2023-05-25T12:10:11.503Z,14.15
2023-05-25T12:12:45.210Z,14.16
2023-05-25T12:15:24.419Z,14.16
2023-05-25T12:17:54.663Z,14.18
2023-05-25T12:20:23.515Z,14.21
2023-05-25T12:22:52.111Z,14.19
2023-05-25T12:25:22.616Z,14.18
2023-05-25T12:28:10.657Z,14.17
2023-05-25T12:30:39.068Z,14.20
2023-05-25T12:33:07.570Z,14.19
2023-05-25T12:35:50.402Z,14.19
2023-05-25T12:38:20.465Z,14.19
2023-05-25T12:40:48.852Z,14.20
2023-05-25T12:43:18.297Z,14.20
2023-05-25T12:45:46.675Z,14.17
2023-05-25T12:48:15.027Z,14.16
2023-05-25T12:50:59.119Z,14.16
2023-05-25T12:53:28.853Z,14.17
2023-05-25T12:56:04.678Z,14.15
2023-05-25T12:58:33.014Z,14.13
2023-05-25T13:01:01.381Z,14.09
2023-05-25T13:03:29.738Z,14.09
2023-05-25T13:06:03.207Z,14.09
2023-05-25T13:08:31.542Z,14.09
2023-05-25T13:11:00.774Z,14.09
2023-05-25T13:13:29.067Z,14.08
2023-05-25T13:15:58.969Z,14.08
2023-05-25T13:18:27.525Z,14.11
2023-05-25T13:20:57.116Z,14.12
2023-05-25T13:23:26.878Z,14.13
2023-05-25T13:25:55.096Z,14.14
2023-05-25T13:28:23.482Z,14.15
2023-05-25T13:30:51.782Z,14.17
2023-05-25T13:33:20.056Z,14.17
2023-05-25T13:36:10.559Z,14.18
2023-05-25T13:38:39.200Z,14.19
2023-05-25T13:41:07.452Z,14.20
2023-05-25T13:43:35.829Z,14.20
2023-05-25T13:46:04.272Z,14.20
2023-05-25T13:48:32.569Z,14.21
2023-05-25T13:51:01.119Z,14.20
2023-05-25T13:53:29.366Z,14.18
2023-05-25T13:55:57.602Z,14.17
2023-05-25T13:58:26.068Z,14.18
2023-05-25T14:00:54.312Z,14.20
2023-05-25T14:03:22.747Z,14.20
2023-05-25T14:05:51.750Z,14.20
2023-05-25T14:08:20.031Z,14.19
2023-05-25T14:10:48.263Z,14.19
2023-05-25T14:13:16.595Z,14.19
2023-05-25T14:15:45.876Z,14.20
2023-05-25T14:18:14.433Z,14.22
2023-05-25T14:20:43.552Z,14.25
2023-05-25T14:23:14.263Z,14.25
2023-05-25T14:25:44.290Z,14.24
2023-05-25T14:28:12.732Z,14.27
2023-05-25T14:30:41.008Z,14.26
2023-05-25T14:33:14.773Z,14.26
2023-05-25T14:35:43.734Z,14.31
2023-05-25T14:38:12.240Z,14.36
2023-05-25T14:40:40.525Z,14.39
2023-05-25T14:43:08.806Z,14.38
2023-05-25T14:45:37.028Z,14.35
2023-05-25T14:48:15.932Z,14.35
2023-05-25T14:50:45.972Z,14.41
2023-05-25T14:53:14.863Z,14.45
2023-05-25T14:55:43.705Z,14.49
2023-05-25T14:58:12.768Z,14.52
2023-05-25T15:00:40.981Z,14.54
2023-05-25T15:03:09.440Z,14.54
2023-05-25T15:05:37.787Z,14.54
2023-05-25T15:08:06.122Z,14.53
2023-05-25T15:10:34.416Z,14.53
2023-05-25T15:13:02.749Z,14.56
2023-05-25T15:15:31.006Z,14.57
2023-05-25T15:17:59.292Z,14.60
2023-05-25T15:20:28.020Z,14.66
2023-05-25T15:22:56.391Z,14.69
2023-05-25T15:25:35.163Z,14.70
2023-05-25T15:28:04.685Z,14.71
2023-05-25T15:30:35.125Z,14.70
2023-05-25T15:33:05.345Z,14.71
2023-05-25T15:35:33.649Z,14.77
2023-05-25T15:38:02.269Z,14.83
2023-05-25T15:40:30.549Z,14.89
2023-05-25T15:42:58.836Z,14.92
2023-05-25T15:45:27.540Z,14.97
2023-05-25T15:47:55.984Z,15.00
2023-05-25T15:50:24.560Z,15.08
2023-05-25T15:52:52.946Z,15.14
2023-05-25T15:55:21.577Z,15.21
2023-05-25T15:57:49.824Z,15.25
2023-05-25T16:00:18.722Z,15.28
2023-05-25T16:02:47.044Z,15.30
2023-05-25T16:05:15.500Z,15.33
2023-05-25T16:07:43.766Z,15.38
2023-05-25T16:10:12.108Z,15.45
2023-05-25T16:12:40.416Z,15.50
2023-05-25T16:15:09.081Z,15.57
2023-05-25T16:17:37.344Z,15.66
2023-05-25T16:20:07.536Z,15.74
2023-05-25T16:22:35.777Z,15.80
2023-05-25T16:25:04.033Z,15.88
2023-05-25T16:27:32.331Z,15.90
2023-05-25T16:30:00.617Z,15.88
2023-05-25T16:32:30.379Z,15.96
2023-05-25T16:34:58.636Z,16.00
2023-05-25T16:37:27.141Z,16.07
2023-05-25T16:39:55.489Z,16.17
2023-05-25T16:42:26.116Z,16.26
2023-05-25T16:44:54.588Z,16.33
2023-05-25T16:47:23.460Z,16.42
2023-05-25T16:49:51.758Z,16.47
2023-05-25T16:52:19.994Z,16.53
2023-05-25T16:54:48.269Z,16.57
2023-05-25T16:57:16.503Z,16.58
2023-05-25T16:59:44.733Z,16.61
2023-05-25T17:02:13.049Z,16.68
2023-05-25T17:04:41.319Z,16.75
2023-05-25T17:07:09.785Z,16.82
2023-05-25T17:09:38.034Z,16.84
2023-05-25T17:12:07.293Z,16.88
2023-05-25T17:14:35.565Z,16.98
2023-05-25T17:17:03.897Z,17.08
2023-05-25T17:19:32.467Z,17.12
2023-05-25T17:22:00.722Z,17.09
2023-05-25T17:24:28.970Z,17.13
2023-05-25T17:26:57.317Z,17.17
2023-05-25T17:29:25.918Z,17.25
2023-05-25T17:31:54.792Z,17.26
2023-05-25T17:34:23.152Z,17.32
2023-05-25T17:36:51.513Z,17.41
2023-05-25T17:39:19.829Z,17.50
2023-05-25T17:41:48.560Z,17.58
2023-05-25T17:44:18.178Z,17.63
2023-05-25T17:46:46.704Z,17.70
2023-05-25T17:49:14.986Z,17.76
2023-05-25T17:51:43.285Z,17.79
2023-05-25T17:54:16.137Z,17.86
2023-05-25T17:56:44.410Z,17.91
2023-05-25T17:59:12.878Z,18.01
2023-05-25T18:01:41.687Z,17.92
2023-05-25T18:04:10.202Z,17.92
2023-05-25T18:06:38.553Z,17.94
2023-05-25T18:09:06.789Z,17.94
2023-05-25T18:11:37.330Z,18.03
2023-05-25T18:14:06.072Z,18.28
2023-05-25T18:16:34.588Z,18.60
2023-05-25T18:19:03.465Z,18.85
2023-05-25T18:21:33.397Z,19.05
2023-05-25T18:24:01.800Z,19.22
2023-05-25T18:26:30.351Z,19.12
2023-05-25T18:28:58.624Z,19.00
2023-05-25T18:31:27.985Z,18.87
2023-05-25T18:33:56.337Z,19.01
2023-05-25T18:36:24.642Z,19.22
2023-05-25T18:38:52.926Z,19.43
2023-05-25T18:41:25.373Z,19.45
2023-05-25T18:43:53.732Z,19.62
2023-05-25T18:46:22.449Z,19.71
2023-05-25T18:48:50.756Z,19.78
2023-05-25T18:51:23.176Z,19.88
2023-05-25T18:53:51.467Z,19.98
2023-05-25T18:56:19.730Z,20.15
2023-05-25T18:58:48.936Z,20.31
2023-05-25T19:01:19.314Z,20.41
2023-05-25T19:03:47.711Z,20.51
2023-05-25T19:06:16.011Z,20.60
2023-05-25T19:08:44.465Z,20.67
2023-05-25T19:11:12.740Z,20.72
2023-05-25T19:13:40.966Z,20.74
2023-05-25T19:16:09.513Z,20.90
2023-05-25T19:18:37.815Z,21.07
2023-05-25T19:21:06.880Z,21.22
2023-05-25T19:23:36.024Z,21.28
2023-05-25T19:26:04.297Z,21.32
2023-05-25T19:28:32.514Z,21.41
2023-05-25T19:31:01.750Z,21.57
2023-05-25T19:33:29.994Z,21.76
2023-05-25T19:35:58.443Z,21.97
2023-05-25T19:38:31.495Z,22.14
2023-05-25T19:41:09.091Z,22.14
2023-05-25T19:43:38.192Z,22.18
2023-05-25T19:46:07.050Z,22.25
2023-05-25T19:48:35.372Z,22.28
2023-05-25T19:51:03.636Z,22.48
2023-05-25T19:53:32.291Z,22.65
2023-05-25T19:56:00.553Z,22.84
2023-05-25T19:58:28.808Z,22.91
2023-05-25T20:00:57.254Z,23.05
2023-05-25T20:03:25.970Z,23.08
2023-05-25T20:05:54.348Z,23.19
2023-05-25T20:08:25.234Z,23.38
2023-05-25T20:10:54.764Z,23.50
2023-05-25T20:13:22.993Z,23.62
2023-05-25T20:15:51.352Z,23.77
2023-05-25T20:18:19.687Z,23.73
2023-05-25T20:20:48.133Z,23.81
2023-05-25T20:23:16.519Z,23.91
2023-05-25T20:25:44.977Z,24.14
2023-05-25T20:28:13.579Z,24.26
2023-05-25T20:30:41.851Z,24.29
2023-05-25T20:33:10.133Z,24.28
2023-05-25T20:35:39.130Z,24.40
2023-05-25T20:38:07.520Z,24.62
2023-05-25T20:40:35.781Z,24.64
2023-05-25T20:43:04.030Z,24.79
2023-05-25T20:45:32.552Z,25.01
2023-05-25T20:48:07.525Z,25.33
2023-05-25T20:50:35.904Z,25.58
2023-05-25T20:53:04.158Z,25.63
2023-05-25T20:55:32.453Z,25.76
2023-05-25T20:58:01.836Z,25.92
2023-05-25T21:00:30.141Z,26.02
2023-05-25T21:02:58.497Z,26.21
2023-05-25T21:05:27.519Z,26.34
2023-05-25T21:07:55.766Z,26.39
2023-05-25T21:10:24.018Z,26.39
2023-05-25T21:12:52.475Z,26.49
2023-05-25T21:15:20.770Z,26.57
2023-05-25T21:17:49.135Z,26.60
2023-05-25T21:20:17.579Z,26.51
2023-05-25T21:22:45.836Z,26.62
2023-05-25T21:25:14.062Z,26.76
2023-05-25T21:27:42.285Z,26.92
2023-05-25T21:30:11.046Z,27.02
2023-05-25T21:32:39.585Z,27.09
2023-05-25T21:35:08.124Z,27.06
2023-05-25T21:37:36.377Z,26.97
2023-05-25T21:40:04.688Z,26.98
2023-05-25T21:42:32.895Z,26.92
2023-05-25T21:45:01.211Z,26.95
2023-05-25T21:47:29.594Z,27.03
2023-05-25T21:49:58.168Z,27.08
2023-05-25T21:52:26.468Z,27.10
2023-05-25T21:54:54.686Z,27.09
2023-05-25T21:57:22.920Z,27.13
2023-05-25T21:59:51.517Z,27.13
2023-05-25T22:02:19.823Z,27.20
2023-05-25T22:04:48.148Z,27.27
2023-05-25T22:07:16.642Z,27.27
2023-05-25T22:09:44.940Z,27.22
2023-05-25T22:12:13.728Z,27.27
2023-05-25T22:14:42.021Z,27.36
2023-05-25T22:17:10.510Z,27.38
2023-05-25T22:19:38.855Z,27.40
2023-05-25T22:22:07.670Z,27.30
2023-05-25T22:24:36.062Z,27.25
2023-05-25T22:27:04.370Z,27.28
2023-05-25T22:29:32.646Z,27.33
2023-05-25T22:32:00.941Z,27.32
2023-05-25T22:34:29.267Z,27.31
2023-05-25T22:36:57.601Z,27.22
2023-05-25T22:39:26.077Z,27.10
2023-05-25T22:41:54.342Z,27.06
2023-05-25T22:44:22.640Z,27.06
2023-05-25T22:46:50.982Z,26.96
2023-05-25T22:49:19.324Z,26.84
2023-05-25T22:51:47.591Z,26.66
2023-05-25T22:54:15.920Z,26.41
2023-05-25T22:56:44.739Z,26.17
2023-05-25T22:59:14.263Z,26.08
2023-05-25T23:01:42.559Z,25.93
2023-05-25T23:04:10.959Z,25.88
2023-05-25T23:06:39.405Z,25.84
2023-05-25T23:09:07.656Z,25.70
2023-05-25T23:11:35.938Z,25.51
2023-05-25T23:14:04.329Z,25.29
2023-05-25T23:16:32.610Z,25.18
2023-05-25T23:19:01.037Z,25.03
2023-05-25T23:21:29.445Z,24.88
2023-05-25T23:23:57.702Z,24.69
2023-05-25T23:26:26.101Z,24.52
2023-05-25T23:28:54.399Z,24.30
2023-05-25T23:31:22.721Z,24.07
2023-05-25T23:33:50.986Z,23.93
2023-05-25T23:36:19.416Z,23.77
2023-05-25T23:38:47.759Z,23.64
2023-05-25T23:41:17.358Z,23.44
2023-05-25T23:43:46.390Z,23.33
2023-05-25T23:46:18.213Z,23.21
2023-05-25T23:48:47.137Z,23.16
2023-05-25T23:51:15.467Z,23.14
2023-05-25T23:53:44.092Z,23.09
2023-05-25T23:56:12.388Z,22.99
2023-05-25T23:58:40.769Z,22.89
